sensor_id;sensor_type;location;lat;lon;timestamp;P1;durP1;ratioP1;P2;durP2;ratioP2
20970;SDS011;10644;48.834;10.088;2023-02-28T00:00:40;6.78;;;4.40;;
20970;SDS011;10644;48.834;10.088;2023-02-28T00:03:13;4.35;;;3.53;;
20970;SDS011;10644;48.834;10.088;2023-02-28T00:05:40;3.78;;;2.75;;
20970;SDS011;10644;48.834;10.088;2023-02-28T00:10:42;11.00;;;4.32;;
20970;SDS011;10644;48.834;10.088;2023-02-28T00:15:39;5.13;;;3.95;;
20970;SDS011;10644;48.834;10.088;2023-02-28T00:23:26;10.25;;;5.20;;
20970;SDS011;10644;48.834;10.088;2023-02-28T00:26:03;14.00;;;6.18;;
20970;SDS011;10644;48.834;10.088;2023-02-28T00:28:28;4.72;;;3.88;;
20970;SDS011;10644;48.834;10.088;2023-02-28T00:31:02;2.50;;;1.80;;
20970;SDS011;10644;48.834;10.088;2023-02-28T00:33:42;7.05;;;3.97;;
20970;SDS011;10644;48.834;10.088;2023-02-28T00:36:09;8.60;;;4.78;;
20970;SDS011;10644;48.834;10.088;2023-02-28T00:38:54;5.38;;;1.95;;
20970;SDS011;10644;48.834;10.088;2023-02-28T00:41:20;4.60;;;3.33;;
20970;SDS011;10644;48.834;10.088;2023-02-28T00:49:01;8.68;;;3.65;;
20970;SDS011;10644;48.834;10.088;2023-02-28T00:53:57;7.88;;;3.38;;
20970;SDS011;10644;48.834;10.088;2023-02-28T00:56:23;8.60;;;4.20;;
20970;SDS011;10644;48.834;10.088;2023-02-28T00:58:51;8.23;;;4.97;;
20970;SDS011;10644;48.834;10.088;2023-02-28T01:01:17;9.77;;;4.70;;
20970;SDS011;10644;48.834;10.088;2023-02-28T01:03:54;11.70;;;4.32;;
20970;SDS011;10644;48.834;10.088;2023-02-28T01:06:23;7.07;;;3.22;;
20970;SDS011;10644;48.834;10.088;2023-02-28T01:11:36;10.73;;;4.47;;
20970;SDS011;10644;48.834;10.088;2023-02-28T01:14:03;9.18;;;4.72;;
20970;SDS011;10644;48.834;10.088;2023-02-28T01:16:39;8.15;;;4.95;;
20970;SDS011;10644;48.834;10.088;2023-02-28T01:22:02;8.57;;;4.90;;
20970;SDS011;10644;48.834;10.088;2023-02-28T01:24:34;5.50;;;3.28;;
20970;SDS011;10644;48.834;10.088;2023-02-28T01:26:59;7.70;;;3.85;;
20970;SDS011;10644;48.834;10.088;2023-02-28T01:32:14;9.52;;;4.80;;
20970;SDS011;10644;48.834;10.088;2023-02-28T01:34:42;5.07;;;4.20;;
20970;SDS011;10644;48.834;10.088;2023-02-28T01:40:00;4.75;;;3.38;;
20970;SDS011;10644;48.834;10.088;2023-02-28T01:42:27;5.10;;;3.53;;
20970;SDS011;10644;48.834;10.088;2023-02-28T01:47:51;3.80;;;3.50;;
20970;SDS011;10644;48.834;10.088;2023-02-28T01:50:23;2.70;;;2.00;;
20970;SDS011;10644;48.834;10.088;2023-02-28T01:53:01;5.20;;;3.60;;
20970;SDS011;10644;48.834;10.088;2023-02-28T01:55:29;9.55;;;4.93;;
20970;SDS011;10644;48.834;10.088;2023-02-28T01:58:02;6.40;;;4.28;;
20970;SDS011;10644;48.834;10.088;2023-02-28T02:00:31;7.90;;;5.18;;
20970;SDS011;10644;48.834;10.088;2023-02-28T02:03:09;7.03;;;5.20;;
20970;SDS011;10644;48.834;10.088;2023-02-28T02:05:46;10.50;;;5.60;;
20970;SDS011;10644;48.834;10.088;2023-02-28T02:08:26;7.57;;;5.05;;
20970;SDS011;10644;48.834;10.088;2023-02-28T02:10:57;7.25;;;4.40;;
20970;SDS011;10644;48.834;10.088;2023-02-28T02:24:47;6.75;;;4.25;;
20970;SDS011;10644;48.834;10.088;2023-02-28T02:30:44;10.00;;;5.88;;
20970;SDS011;10644;48.834;10.088;2023-02-28T02:51:17;7.93;;;5.63;;
20970;SDS011;10644;48.834;10.088;2023-02-28T02:56:37;12.02;;;5.63;;
20970;SDS011;10644;48.834;10.088;2023-02-28T02:59:07;8.30;;;4.45;;
20970;SDS011;10644;48.834;10.088;2023-02-28T03:01:41;6.53;;;4.28;;
20970;SDS011;10644;48.834;10.088;2023-02-28T03:06:48;14.27;;;7.00;;
20970;SDS011;10644;48.834;10.088;2023-02-28T03:17:39;15.40;;;6.43;;
20970;SDS011;10644;48.834;10.088;2023-02-28T03:26:19;8.40;;;4.45;;
20970;SDS011;10644;48.834;10.088;2023-02-28T03:31:38;10.25;;;5.90;;
20970;SDS011;10644;48.834;10.088;2023-02-28T03:34:08;9.25;;;6.30;;
20970;SDS011;10644;48.834;10.088;2023-02-28T03:36:46;7.70;;;5.32;;
20970;SDS011;10644;48.834;10.088;2023-02-28T03:39:17;10.90;;;6.60;;
20970;SDS011;10644;48.834;10.088;2023-02-28T03:44:46;10.25;;;6.20;;
20970;SDS011;10644;48.834;10.088;2023-02-28T03:47:17;3.88;;;3.50;;
20970;SDS011;10644;48.834;10.088;2023-02-28T03:52:22;12.20;;;6.38;;
20970;SDS011;10644;48.834;10.088;2023-02-28T03:54:53;10.05;;;4.97;;
20970;SDS011;10644;48.834;10.088;2023-02-28T04:00:39;9.82;;;5.78;;
20970;SDS011;10644;48.834;10.088;2023-02-28T04:03:13;9.35;;;5.70;;
20970;SDS011;10644;48.834;10.088;2023-02-28T04:13:49;15.27;;;8.95;;
20970;SDS011;10644;48.834;10.088;2023-02-28T04:16:15;10.30;;;5.30;;
20970;SDS011;10644;48.834;10.088;2023-02-28T04:18:41;7.00;;;4.70;;
20970;SDS011;10644;48.834;10.088;2023-02-28T04:21:10;8.25;;;5.70;;
20970;SDS011;10644;48.834;10.088;2023-02-28T04:23:36;15.45;;;7.63;;
20970;SDS011;10644;48.834;10.088;2023-02-28T04:26:01;12.80;;;7.23;;
20970;SDS011;10644;48.834;10.088;2023-02-28T04:28:28;14.03;;;8.27;;
20970;SDS011;10644;48.834;10.088;2023-02-28T04:30:57;14.75;;;7.80;;
20970;SDS011;10644;48.834;10.088;2023-02-28T04:33:28;8.75;;;5.30;;
20970;SDS011;10644;48.834;10.088;2023-02-28T04:36:02;16.45;;;8.10;;
20970;SDS011;10644;48.834;10.088;2023-02-28T04:38:39;14.60;;;7.88;;
20970;SDS011;10644;48.834;10.088;2023-02-28T04:41:09;12.57;;;8.15;;
20970;SDS011;10644;48.834;10.088;2023-02-28T04:43:53;8.80;;;5.60;;
20970;SDS011;10644;48.834;10.088;2023-02-28T04:46:22;12.15;;;5.75;;
20970;SDS011;10644;48.834;10.088;2023-02-28T04:48:48;12.32;;;7.30;;
20970;SDS011;10644;48.834;10.088;2023-02-28T04:51:14;12.85;;;4.35;;
20970;SDS011;10644;48.834;10.088;2023-02-28T04:53:47;12.77;;;6.93;;
20970;SDS011;10644;48.834;10.088;2023-02-28T04:56:14;12.27;;;7.57;;
20970;SDS011;10644;48.834;10.088;2023-02-28T04:58:42;17.27;;;8.60;;
20970;SDS011;10644;48.834;10.088;2023-02-28T05:04:19;11.38;;;7.53;;
20970;SDS011;10644;48.834;10.088;2023-02-28T05:06:46;16.30;;;8.20;;
20970;SDS011;10644;48.834;10.088;2023-02-28T05:09:16;14.95;;;7.57;;
20970;SDS011;10644;48.834;10.088;2023-02-28T05:11:42;10.55;;;7.25;;
20970;SDS011;10644;48.834;10.088;2023-02-28T05:14:18;11.38;;;5.72;;
20970;SDS011;10644;48.834;10.088;2023-02-28T05:19:15;17.83;;;9.02;;
20970;SDS011;10644;48.834;10.088;2023-02-28T05:21:41;14.50;;;8.33;;
20970;SDS011;10644;48.834;10.088;2023-02-28T05:24:14;15.60;;;8.35;;
20970;SDS011;10644;48.834;10.088;2023-02-28T05:26:41;17.97;;;7.43;;
20970;SDS011;10644;48.834;10.088;2023-02-28T05:29:18;16.65;;;5.90;;
20970;SDS011;10644;48.834;10.088;2023-02-28T05:31:50;7.72;;;5.00;;
20970;SDS011;10644;48.834;10.088;2023-02-28T05:37:14;8.85;;;5.05;;
20970;SDS011;10644;48.834;10.088;2023-02-28T05:42:18;20.67;;;8.40;;
20970;SDS011;10644;48.834;10.088;2023-02-28T05:47:58;14.63;;;7.55;;
20970;SDS011;10644;48.834;10.088;2023-02-28T05:55:52;20.75;;;10.02;;
20970;SDS011;10644;48.834;10.088;2023-02-28T05:58:27;12.27;;;5.82;;
20970;SDS011;10644;48.834;10.088;2023-02-28T06:00:59;13.93;;;6.30;;
20970;SDS011;10644;48.834;10.088;2023-02-28T06:09:10;13.52;;;7.25;;
20970;SDS011;10644;48.834;10.088;2023-02-28T06:11:51;14.32;;;6.78;;
20970;SDS011;10644;48.834;10.088;2023-02-28T06:16:48;17.88;;;9.70;;
20970;SDS011;10644;48.834;10.088;2023-02-28T06:19:23;11.15;;;4.28;;
20970;SDS011;10644;48.834;10.088;2023-02-28T06:21:50;17.75;;;8.32;;
20970;SDS011;10644;48.834;10.088;2023-02-28T06:24:17;23.05;;;10.18;;
20970;SDS011;10644;48.834;10.088;2023-02-28T06:29:54;18.45;;;8.50;;
20970;SDS011;10644;48.834;10.088;2023-02-28T06:32:25;22.50;;;10.10;;
20970;SDS011;10644;48.834;10.088;2023-02-28T06:34:54;18.25;;;9.25;;
20970;SDS011;10644;48.834;10.088;2023-02-28T06:37:23;21.20;;;10.75;;
20970;SDS011;10644;48.834;10.088;2023-02-28T06:39:54;19.25;;;6.93;;
20970;SDS011;10644;48.834;10.088;2023-02-28T06:45:19;20.20;;;8.70;;
20970;SDS011;10644;48.834;10.088;2023-02-28T06:50:33;20.73;;;9.68;;
20970;SDS011;10644;48.834;10.088;2023-02-28T06:53:09;22.38;;;10.40;;
20970;SDS011;10644;48.834;10.088;2023-02-28T06:55:43;20.55;;;9.80;;
20970;SDS011;10644;48.834;10.088;2023-02-28T06:58:18;21.85;;;8.77;;
20970;SDS011;10644;48.834;10.088;2023-02-28T07:03:18;17.05;;;7.18;;
20970;SDS011;10644;48.834;10.088;2023-02-28T07:05:48;12.48;;;7.55;;
20970;SDS011;10644;48.834;10.088;2023-02-28T07:11:03;13.98;;;7.47;;
20970;SDS011;10644;48.834;10.088;2023-02-28T07:13:31;16.10;;;7.88;;
20970;SDS011;10644;48.834;10.088;2023-02-28T07:15:59;13.85;;;7.15;;
20970;SDS011;10644;48.834;10.088;2023-02-28T07:21:34;31.30;;;9.38;;
20970;SDS011;10644;48.834;10.088;2023-02-28T07:24:16;15.43;;;6.22;;
20970;SDS011;10644;48.834;10.088;2023-02-28T07:26:44;16.55;;;6.43;;
20970;SDS011;10644;48.834;10.088;2023-02-28T07:29:09;14.67;;;6.90;;
20970;SDS011;10644;48.834;10.088;2023-02-28T07:31:35;21.93;;;9.33;;
20970;SDS011;10644;48.834;10.088;2023-02-28T07:36:57;30.88;;;8.70;;
20970;SDS011;10644;48.834;10.088;2023-02-28T07:42:38;26.38;;;9.48;;
20970;SDS011;10644;48.834;10.088;2023-02-28T07:47:41;14.45;;;7.93;;
20970;SDS011;10644;48.834;10.088;2023-02-28T07:50:09;17.13;;;7.95;;
20970;SDS011;10644;48.834;10.088;2023-02-28T07:52:44;13.07;;;6.70;;
20970;SDS011;10644;48.834;10.088;2023-02-28T07:55:09;17.20;;;9.48;;
20970;SDS011;10644;48.834;10.088;2023-02-28T07:57:38;21.90;;;11.15;;
20970;SDS011;10644;48.834;10.088;2023-02-28T08:00:05;16.02;;;8.25;;
20970;SDS011;10644;48.834;10.088;2023-02-28T08:02:49;15.50;;;8.13;;
20970;SDS011;10644;48.834;10.088;2023-02-28T08:05:27;20.20;;;7.15;;
20970;SDS011;10644;48.834;10.088;2023-02-28T08:08:00;20.73;;;10.35;;
20970;SDS011;10644;48.834;10.088;2023-02-28T08:10:39;22.10;;;10.65;;
20970;SDS011;10644;48.834;10.088;2023-02-28T08:13:07;17.65;;;10.52;;
20970;SDS011;10644;48.834;10.088;2023-02-28T08:15:37;16.60;;;10.25;;
20970;SDS011;10644;48.834;10.088;2023-02-28T08:18:02;19.50;;;10.48;;
20970;SDS011;10644;48.834;10.088;2023-02-28T08:23:15;13.93;;;7.38;;
20970;SDS011;10644;48.834;10.088;2023-02-28T08:25:41;18.37;;;11.03;;
20970;SDS011;10644;48.834;10.088;2023-02-28T08:33:51;18.42;;;11.43;;
20970;SDS011;10644;48.834;10.088;2023-02-28T08:36:26;19.30;;;7.68;;
20970;SDS011;10644;48.834;10.088;2023-02-28T08:38:59;35.90;;;12.50;;
20970;SDS011;10644;48.834;10.088;2023-02-28T08:44:42;15.38;;;9.43;;
20970;SDS011;10644;48.834;10.088;2023-02-28T08:47:15;18.83;;;11.10;;
20970;SDS011;10644;48.834;10.088;2023-02-28T08:49:41;16.38;;;9.60;;
20970;SDS011;10644;48.834;10.088;2023-02-28T08:52:08;24.70;;;9.30;;
20970;SDS011;10644;48.834;10.088;2023-02-28T08:54:42;18.85;;;8.32;;
20970;SDS011;10644;48.834;10.088;2023-02-28T08:57:15;18.52;;;10.95;;
20970;SDS011;10644;48.834;10.088;2023-02-28T08:59:41;16.98;;;9.88;;
20970;SDS011;10644;48.834;10.088;2023-02-28T09:02:13;14.40;;;7.37;;
20970;SDS011;10644;48.834;10.088;2023-02-28T09:07:25;18.02;;;9.30;;
20970;SDS011;10644;48.834;10.088;2023-02-28T09:09:52;11.52;;;6.93;;
20970;SDS011;10644;48.834;10.088;2023-02-28T09:15:28;16.25;;;8.73;;
20970;SDS011;10644;48.834;10.088;2023-02-28T09:17:53;12.37;;;6.10;;
20970;SDS011;10644;48.834;10.088;2023-02-28T09:23:02;20.15;;;8.55;;
20970;SDS011;10644;48.834;10.088;2023-02-28T09:25:50;18.70;;;10.68;;
20970;SDS011;10644;48.834;10.088;2023-02-28T09:28:18;17.65;;;8.48;;
20970;SDS011;10644;48.834;10.088;2023-02-28T09:30:53;15.13;;;7.53;;
20970;SDS011;10644;48.834;10.088;2023-02-28T09:36:04;17.67;;;10.10;;
20970;SDS011;10644;48.834;10.088;2023-02-28T09:41:14;25.23;;;11.77;;
20970;SDS011;10644;48.834;10.088;2023-02-28T09:43:44;15.00;;;7.45;;
20970;SDS011;10644;48.834;10.088;2023-02-28T09:49:25;18.83;;;9.70;;
20970;SDS011;10644;48.834;10.088;2023-02-28T09:58:01;22.15;;;11.02;;
20970;SDS011;10644;48.834;10.088;2023-02-28T10:03:38;22.00;;;11.52;;
20970;SDS011;10644;48.834;10.088;2023-02-28T10:09:03;22.73;;;11.88;;
20970;SDS011;10644;48.834;10.088;2023-02-28T10:11:42;18.90;;;9.38;;
20970;SDS011;10644;48.834;10.088;2023-02-28T10:17:10;15.77;;;7.90;;
20970;SDS011;10644;48.834;10.088;2023-02-28T10:35:51;20.00;;;9.85;;
20970;SDS011;10644;48.834;10.088;2023-02-28T10:41:14;21.38;;;8.25;;
20970;SDS011;10644;48.834;10.088;2023-02-28T10:46:48;15.50;;;7.65;;
20970;SDS011;10644;48.834;10.088;2023-02-28T10:49:26;17.02;;;8.57;;
20970;SDS011;10644;48.834;10.088;2023-02-28T10:52:11;10.88;;;5.32;;
20970;SDS011;10644;48.834;10.088;2023-02-28T10:54:40;17.33;;;9.13;;
20970;SDS011;10644;48.834;10.088;2023-02-28T10:59:39;19.77;;;10.35;;
20970;SDS011;10644;48.834;10.088;2023-02-28T11:10:54;17.10;;;10.43;;
20970;SDS011;10644;48.834;10.088;2023-02-28T11:13:26;15.55;;;8.35;;
20970;SDS011;10644;48.834;10.088;2023-02-28T11:15:57;12.15;;;7.40;;
20970;SDS011;10644;48.834;10.088;2023-02-28T11:18:37;17.50;;;10.77;;
20970;SDS011;10644;48.834;10.088;2023-02-28T11:21:06;20.83;;;11.48;;
20970;SDS011;10644;48.834;10.088;2023-02-28T11:26:36;10.23;;;6.55;;
20970;SDS011;10644;48.834;10.088;2023-02-28T11:29:26;15.07;;;8.63;;
20970;SDS011;10644;48.834;10.088;2023-02-28T11:37:53;16.40;;;9.88;;
20970;SDS011;10644;48.834;10.088;2023-02-28T11:40:43;14.35;;;8.95;;
20970;SDS011;10644;48.834;10.088;2023-02-28T11:49:50;18.08;;;10.75;;
20970;SDS011;10644;48.834;10.088;2023-02-28T12:01:21;17.67;;;10.35;;
20970;SDS011;10644;48.834;10.088;2023-02-28T12:10:25;20.30;;;8.50;;
20970;SDS011;10644;48.834;10.088;2023-02-28T12:26:45;14.55;;;8.30;;
20970;SDS011;10644;48.834;10.088;2023-02-28T12:29:39;15.77;;;7.20;;
20970;SDS011;10644;48.834;10.088;2023-02-28T12:35:14;14.65;;;6.43;;
20970;SDS011;10644;48.834;10.088;2023-02-28T12:43:39;25.30;;;11.88;;
20970;SDS011;10644;48.834;10.088;2023-02-28T12:46:15;22.98;;;9.30;;
20970;SDS011;10644;48.834;10.088;2023-02-28T12:52:09;18.17;;;9.07;;
20970;SDS011;10644;48.834;10.088;2023-02-28T12:54:53;17.17;;;7.55;;
20970;SDS011;10644;48.834;10.088;2023-02-28T12:57:41;11.60;;;5.57;;
20970;SDS011;10644;48.834;10.088;2023-02-28T13:00:24;18.08;;;10.10;;
20970;SDS011;10644;48.834;10.088;2023-02-28T13:11:25;18.52;;;11.48;;
20970;SDS011;10644;48.834;10.088;2023-02-28T13:16:50;20.05;;;10.70;;
20970;SDS011;10644;48.834;10.088;2023-02-28T13:22:49;26.00;;;10.82;;
20970;SDS011;10644;48.834;10.088;2023-02-28T13:28:08;17.08;;;10.75;;
20970;SDS011;10644;48.834;10.088;2023-02-28T13:33:34;18.60;;;8.93;;
20970;SDS011;10644;48.834;10.088;2023-02-28T13:38:56;26.60;;;12.55;;
20970;SDS011;10644;48.834;10.088;2023-02-28T14:06:36;24.52;;;14.05;;
20970;SDS011;10644;48.834;10.088;2023-02-28T14:15:02;25.00;;;10.60;;
20970;SDS011;10644;48.834;10.088;2023-02-28T14:17:40;18.80;;;11.80;;
20970;SDS011;10644;48.834;10.088;2023-02-28T14:20:14;30.98;;;9.85;;
20970;SDS011;10644;48.834;10.088;2023-02-28T14:31:52;19.00;;;11.13;;
20970;SDS011;10644;48.834;10.088;2023-02-28T14:37:15;19.10;;;11.25;;
20970;SDS011;10644;48.834;10.088;2023-02-28T14:39:50;16.08;;;7.53;;
20970;SDS011;10644;48.834;10.088;2023-02-28T14:42:29;43.30;;;14.05;;
20970;SDS011;10644;48.834;10.088;2023-02-28T14:44:59;39.00;;;14.27;;
20970;SDS011;10644;48.834;10.088;2023-02-28T14:47:31;26.25;;;12.40;;
20970;SDS011;10644;48.834;10.088;2023-02-28T14:50:05;22.92;;;10.90;;
20970;SDS011;10644;48.834;10.088;2023-02-28T14:52:38;25.00;;;9.02;;
20970;SDS011;10644;48.834;10.088;2023-02-28T14:55:05;16.00;;;8.43;;
20970;SDS011;10644;48.834;10.088;2023-02-28T15:08:44;17.15;;;9.10;;
20970;SDS011;10644;48.834;10.088;2023-02-28T15:11:18;18.50;;;10.77;;
20970;SDS011;10644;48.834;10.088;2023-02-28T15:13:53;21.13;;;11.35;;
20970;SDS011;10644;48.834;10.088;2023-02-28T15:16:25;20.48;;;11.85;;
20970;SDS011;10644;48.834;10.088;2023-02-28T15:18:56;20.40;;;10.98;;
20970;SDS011;10644;48.834;10.088;2023-02-28T15:21:41;23.20;;;12.70;;
20970;SDS011;10644;48.834;10.088;2023-02-28T15:27:20;17.35;;;11.40;;
20970;SDS011;10644;48.834;10.088;2023-02-28T15:29:59;24.67;;;11.20;;
20970;SDS011;10644;48.834;10.088;2023-02-28T15:32:31;14.35;;;7.10;;
20970;SDS011;10644;48.834;10.088;2023-02-28T15:37:54;21.58;;;10.20;;
20970;SDS011;10644;48.834;10.088;2023-02-28T15:40:30;28.67;;;13.90;;
20970;SDS011;10644;48.834;10.088;2023-02-28T15:43:45;17.98;;;10.98;;
20970;SDS011;10644;48.834;10.088;2023-02-28T15:46:08;23.45;;;11.82;;
20970;SDS011;10644;48.834;10.088;2023-02-28T15:48:54;20.77;;;12.25;;
20970;SDS011;10644;48.834;10.088;2023-02-28T15:51:37;14.90;;;8.60;;
20970;SDS011;10644;48.834;10.088;2023-02-28T15:54:07;20.00;;;10.80;;
20970;SDS011;10644;48.834;10.088;2023-02-28T15:56:44;19.73;;;7.20;;
20970;SDS011;10644;48.834;10.088;2023-02-28T15:59:22;17.85;;;12.35;;
20970;SDS011;10644;48.834;10.088;2023-02-28T16:04:54;18.75;;;11.27;;
20970;SDS011;10644;48.834;10.088;2023-02-28T16:09:59;18.10;;;10.32;;
20970;SDS011;10644;48.834;10.088;2023-02-28T16:12:29;19.40;;;10.50;;
20970;SDS011;10644;48.834;10.088;2023-02-28T16:15:06;19.15;;;10.55;;
20970;SDS011;10644;48.834;10.088;2023-02-28T16:17:49;21.52;;;12.73;;
20970;SDS011;10644;48.834;10.088;2023-02-28T16:20:28;20.77;;;10.75;;
20970;SDS011;10644;48.834;10.088;2023-02-28T16:22:54;18.15;;;10.43;;
20970;SDS011;10644;48.834;10.088;2023-02-28T16:25:27;22.97;;;12.50;;
20970;SDS011;10644;48.834;10.088;2023-02-28T16:27:59;20.10;;;11.90;;
20970;SDS011;10644;48.834;10.088;2023-02-28T16:30:26;20.30;;;11.97;;
20970;SDS011;10644;48.834;10.088;2023-02-28T16:32:58;22.38;;;12.18;;
20970;SDS011;10644;48.834;10.088;2023-02-28T16:35:29;23.55;;;12.68;;
20970;SDS011;10644;48.834;10.088;2023-02-28T16:37:54;19.33;;;12.00;;
20970;SDS011;10644;48.834;10.088;2023-02-28T16:40:23;20.93;;;12.17;;
20970;SDS011;10644;48.834;10.088;2023-02-28T16:42:51;21.02;;;11.05;;
20970;SDS011;10644;48.834;10.088;2023-02-28T16:45:30;25.70;;;12.77;;
20970;SDS011;10644;48.834;10.088;2023-02-28T16:47:55;27.08;;;14.05;;
20970;SDS011;10644;48.834;10.088;2023-02-28T16:50:27;23.80;;;12.13;;
20970;SDS011;10644;48.834;10.088;2023-02-28T16:53:01;20.25;;;11.63;;
20970;SDS011;10644;48.834;10.088;2023-02-28T16:55:38;20.02;;;12.70;;
20970;SDS011;10644;48.834;10.088;2023-02-28T16:58:13;23.30;;;11.60;;
20970;SDS011;10644;48.834;10.088;2023-02-28T17:00:51;23.23;;;11.38;;
20970;SDS011;10644;48.834;10.088;2023-02-28T17:06:16;29.75;;;14.40;;
20970;SDS011;10644;48.834;10.088;2023-02-28T17:08:51;23.75;;;12.40;;
20970;SDS011;10644;48.834;10.088;2023-02-28T17:11:19;21.58;;;12.13;;
20970;SDS011;10644;48.834;10.088;2023-02-28T17:13:54;24.00;;;12.45;;
20970;SDS011;10644;48.834;10.088;2023-02-28T17:22:00;27.50;;;14.63;;
20970;SDS011;10644;48.834;10.088;2023-02-28T17:24:27;24.00;;;13.38;;
20970;SDS011;10644;48.834;10.088;2023-02-28T17:26:54;27.77;;;13.43;;
20970;SDS011;10644;48.834;10.088;2023-02-28T17:32:03;13.50;;;7.57;;
20970;SDS011;10644;48.834;10.088;2023-02-28T17:34:29;21.50;;;11.45;;
20970;SDS011;10644;48.834;10.088;2023-02-28T17:36:55;25.43;;;13.20;;
20970;SDS011;10644;48.834;10.088;2023-02-28T17:39:21;21.63;;;14.50;;
20970;SDS011;10644;48.834;10.088;2023-02-28T17:42:00;25.48;;;14.50;;
20970;SDS011;10644;48.834;10.088;2023-02-28T17:44:36;24.00;;;13.85;;
20970;SDS011;10644;48.834;10.088;2023-02-28T17:47:09;24.73;;;13.07;;
20970;SDS011;10644;48.834;10.088;2023-02-28T17:52:34;28.00;;;15.30;;
20970;SDS011;10644;48.834;10.088;2023-02-28T17:55:02;28.20;;;15.25;;
20970;SDS011;10644;48.834;10.088;2023-02-28T18:00:18;24.15;;;13.65;;
20970;SDS011;10644;48.834;10.088;2023-02-28T18:05:46;25.52;;;13.25;;
20970;SDS011;10644;48.834;10.088;2023-02-28T18:08:20;22.90;;;13.95;;
20970;SDS011;10644;48.834;10.088;2023-02-28T18:10:50;33.88;;;14.43;;
20970;SDS011;10644;48.834;10.088;2023-02-28T18:13:15;26.00;;;14.85;;
20970;SDS011;10644;48.834;10.088;2023-02-28T18:18:12;21.88;;;11.40;;
20970;SDS011;10644;48.834;10.088;2023-02-28T18:20:50;21.83;;;10.70;;
20970;SDS011;10644;48.834;10.088;2023-02-28T18:29:23;21.30;;;11.27;;
20970;SDS011;10644;48.834;10.088;2023-02-28T18:34:21;27.65;;;14.65;;
20970;SDS011;10644;48.834;10.088;2023-02-28T18:37:00;34.42;;;18.08;;
20970;SDS011;10644;48.834;10.088;2023-02-28T18:39:25;28.90;;;15.05;;
20970;SDS011;10644;48.834;10.088;2023-02-28T18:41:51;31.60;;;15.10;;
20970;SDS011;10644;48.834;10.088;2023-02-28T18:44:25;31.20;;;14.50;;
20970;SDS011;10644;48.834;10.088;2023-02-28T18:46:50;30.05;;;15.85;;
20970;SDS011;10644;48.834;10.088;2023-02-28T18:49:16;27.60;;;15.33;;
20970;SDS011;10644;48.834;10.088;2023-02-28T18:51:45;21.27;;;10.70;;
20970;SDS011;10644;48.834;10.088;2023-02-28T18:54:11;25.30;;;13.48;;
20970;SDS011;10644;48.834;10.088;2023-02-28T18:59:27;25.52;;;13.55;;
20970;SDS011;10644;48.834;10.088;2023-02-28T19:01:55;25.40;;;13.45;;
20970;SDS011;10644;48.834;10.088;2023-02-28T19:04:23;20.58;;;11.52;;
20970;SDS011;10644;48.834;10.088;2023-02-28T19:06:49;27.20;;;13.73;;
20970;SDS011;10644;48.834;10.088;2023-02-28T19:12:02;23.33;;;13.40;;
20970;SDS011;10644;48.834;10.088;2023-02-28T19:14:27;26.17;;;15.00;;
20970;SDS011;10644;48.834;10.088;2023-02-28T19:16:53;21.50;;;12.57;;
20970;SDS011;10644;48.834;10.088;2023-02-28T19:19:24;23.97;;;13.00;;
20970;SDS011;10644;48.834;10.088;2023-02-28T19:21:52;27.73;;;14.23;;
20970;SDS011;10644;48.834;10.088;2023-02-28T19:24:29;20.20;;;11.87;;
20970;SDS011;10644;48.834;10.088;2023-02-28T19:29:47;17.88;;;9.20;;
20970;SDS011;10644;48.834;10.088;2023-02-28T19:32:18;27.48;;;13.13;;
20970;SDS011;10644;48.834;10.088;2023-02-28T19:34:45;19.85;;;9.13;;
20970;SDS011;10644;48.834;10.088;2023-02-28T19:37:19;26.23;;;12.77;;
20970;SDS011;10644;48.834;10.088;2023-02-28T19:40:01;19.23;;;9.35;;
20970;SDS011;10644;48.834;10.088;2023-02-28T19:42:34;17.85;;;8.60;;
20970;SDS011;10644;48.834;10.088;2023-02-28T19:45:00;21.63;;;11.05;;
20970;SDS011;10644;48.834;10.088;2023-02-28T19:47:33;21.25;;;11.23;;
20970;SDS011;10644;48.834;10.088;2023-02-28T19:50:02;10.80;;;6.22;;
20970;SDS011;10644;48.834;10.088;2023-02-28T19:52:39;25.58;;;13.43;;
20970;SDS011;10644;48.834;10.088;2023-02-28T19:57:53;26.65;;;13.75;;
20970;SDS011;10644;48.834;10.088;2023-02-28T20:00:30;30.38;;;14.13;;
20970;SDS011;10644;48.834;10.088;2023-02-28T20:06:06;17.67;;;8.65;;
20970;SDS011;10644;48.834;10.088;2023-02-28T20:14:04;26.40;;;13.02;;
20970;SDS011;10644;48.834;10.088;2023-02-28T20:16:30;24.27;;;13.37;;
20970;SDS011;10644;48.834;10.088;2023-02-28T20:21:34;22.33;;;13.38;;
20970;SDS011;10644;48.834;10.088;2023-02-28T20:26:37;23.42;;;12.57;;
20970;SDS011;10644;48.834;10.088;2023-02-28T20:29:05;22.60;;;11.98;;
20970;SDS011;10644;48.834;10.088;2023-02-28T20:31:32;25.77;;;13.05;;
20970;SDS011;10644;48.834;10.088;2023-02-28T20:34:00;20.52;;;10.70;;
20970;SDS011;10644;48.834;10.088;2023-02-28T20:36:43;25.77;;;11.60;;
20970;SDS011;10644;48.834;10.088;2023-02-28T20:39:15;29.67;;;13.70;;
20970;SDS011;10644;48.834;10.088;2023-02-28T20:44:11;23.65;;;12.13;;
20970;SDS011;10644;48.834;10.088;2023-02-28T20:46:40;25.05;;;13.05;;
20970;SDS011;10644;48.834;10.088;2023-02-28T20:49:07;25.05;;;13.88;;
20970;SDS011;10644;48.834;10.088;2023-02-28T20:51:33;27.90;;;15.47;;
20970;SDS011;10644;48.834;10.088;2023-02-28T20:53:58;24.33;;;13.30;;
20970;SDS011;10644;48.834;10.088;2023-02-28T20:56:35;25.50;;;14.50;;
20970;SDS011;10644;48.834;10.088;2023-02-28T20:59:01;25.95;;;14.32;;
20970;SDS011;10644;48.834;10.088;2023-02-28T21:01:38;32.78;;;16.15;;
20970;SDS011;10644;48.834;10.088;2023-02-28T21:04:21;29.23;;;15.30;;
20970;SDS011;10644;48.834;10.088;2023-02-28T21:06:46;29.30;;;15.85;;
20970;SDS011;10644;48.834;10.088;2023-02-28T21:09:13;31.17;;;16.10;;
20970;SDS011;10644;48.834;10.088;2023-02-28T21:11:41;26.85;;;14.95;;
20970;SDS011;10644;48.834;10.088;2023-02-28T21:14:15;25.77;;;15.23;;
20970;SDS011;10644;48.834;10.088;2023-02-28T21:16:43;28.65;;;17.00;;
20970;SDS011;10644;48.834;10.088;2023-02-28T21:19:09;25.98;;;14.80;;
20970;SDS011;10644;48.834;10.088;2023-02-28T21:21:37;30.85;;;14.15;;
20970;SDS011;10644;48.834;10.088;2023-02-28T21:24:12;26.08;;;14.07;;
20970;SDS011;10644;48.834;10.088;2023-02-28T21:26:40;36.75;;;19.70;;
20970;SDS011;10644;48.834;10.088;2023-02-28T21:29:09;32.83;;;14.98;;
20970;SDS011;10644;48.834;10.088;2023-02-28T21:31:38;31.45;;;15.90;;
20970;SDS011;10644;48.834;10.088;2023-02-28T21:34:11;30.73;;;11.98;;
20970;SDS011;10644;48.834;10.088;2023-02-28T21:36:39;26.17;;;14.57;;
20970;SDS011;10644;48.834;10.088;2023-02-28T21:39:21;26.45;;;14.90;;
20970;SDS011;10644;48.834;10.088;2023-02-28T21:50:37;27.88;;;13.98;;
20970;SDS011;10644;48.834;10.088;2023-02-28T21:56:09;22.55;;;13.88;;
20970;SDS011;10644;48.834;10.088;2023-02-28T22:01:42;28.85;;;14.95;;
20970;SDS011;10644;48.834;10.088;2023-02-28T22:04:15;27.63;;;14.55;;
20970;SDS011;10644;48.834;10.088;2023-02-28T22:12:36;24.75;;;13.98;;
20970;SDS011;10644;48.834;10.088;2023-02-28T22:15:08;29.40;;;15.75;;
20970;SDS011;10644;48.834;10.088;2023-02-28T22:17:42;37.40;;;16.73;;
20970;SDS011;10644;48.834;10.088;2023-02-28T22:20:20;32.78;;;16.58;;